Putnam, Oklahoma
Current Conditions -  °F | °C
As of 12:35 AM on Saturday 20 Dec 2014 (Local Time) from KCLK Reporting Station
Overcast Overcast  
Wind Chill: 33°   Ceiling: 2600
Heat Index: 37°   Visibility: 7mi
Dew Point: 36°   Wind: 6mph
Humidity: 93%   Direction: 150°SSE
Pressure: 30.2"   Gusts: NA
Location:  35.86°N, 98.97°W
Report Text: KCLK 200635Z AUTO 15005KT 7SM OVC026 03/02 A3020 RMK AO2
Loading
Personal Weather Stations






























Interactive Weather Map New forecast layout! Learn more

10-Day Weather Forecast

Advertisements
Track Severe Weather on mobile